AirNav   Everest Fuels
 
 985 users online  

3CO8 E P M C Heliport
Estes Park, Colorado, USA

GOING TO ESTES PARK?


FAA INFORMATION EFFECTIVE 25 MARCH 2021

Location

FAA Identifier: 3CO8
Lat/Long: 40-22-16.8500N 105-30-54.2300W
40-22.280833N 105-30.903833W
40.3713472,-105.5150639
(estimated)
Elevation: 7674 ft. / 2339 m (estimated)
Variation: 12E (1990)
From city: 1 mile E of ESTES PARK, CO
Time zone: UTC -6 (UTC -7 during Standard Time)
Zip code: 80517

Heliport Operations

Heliport use: Private use, MEDICAL USE.
Activation date: 08/1994
Control tower: no
ARTCC: DENVER CENTER
FSS: DENVER FLIGHT SERVICE STATION
Attendance: CONTINUOUS
Wind indicator: yes
Segmented circle: no

Nearby radio navigation aids

VOR radial/distance  VOR name  Freq  Var
BJCr317/32.5JEFFCO VOR/DME115.4011E

Heliport Services

Runway Information

Helipad H1

Dimensions: 50 x 45 ft. / 15 x 14 m
Surface: concrete
Latitude: 40-22.280833N
Longitude: 105-30.903833W
Elevation: 7674.0 ft.
Traffic pattern: leftleft

Heliport Ownership and Management from official FAA records

Ownership: Privately-owned
Owner: ESTES PARK MEDICAL CENTER
555 PROSPECT AVE
ESTES PARK, CO 80517
Manager: MIKE BIELMAIER
555 PROSPECT AVE
ESTES PARK, CO 80517
Phone (970) 577-4440

Additional Remarks

A52-H1 14 FT HELISTOP ELEVATOR TOWER 69 FT S.
FOR CD CTC DENVER ARTCC AT 303-651-4257.

Instrument Procedures

There are no published instrument procedures at 3CO8.

Some nearby airports with instrument procedures:

KLMO - Vance Brand Airport (20 nm SE)
KFNL - Northern Colorado Regional Airport (24 nm E)
KEIK - Erie Municipal Airport (30 nm SE)
KBJC - Rocky Mountain Metro Airport (33 nm SE)
KGXY - Greeley-Weld County Airport (40 nm E)
 
Loc | Ops | Rwys | IFR | FBO | Links
Com | Nav | Svcs | Stats | Notes

AirBoss

 
Area around 3CO8 (E P M C Heliport)
 
Road maps at: MapQuest Bing Google
 
Aerial photo
No photo
 
Sectional chart

 
Airport distance calculator
Flying to E P M C Heliport? Find the distance to fly.

From to 3CO8

Sunrise and sunset
Times for 11-Apr-2021
 Local
(UTC-6)
 Zulu
(UTC)
Morning civil twilight06:0312:03
Sunrise06:3112:31
Sunset19:3601:36
Evening civil twilight20:0302:03

Current date and time
Zulu (UTC)  12-Apr-2021 01:08:16
Local (UTC-6)  11-Apr-2021 19:08:16
 
METAR
KLMO 
20nm SE 
120055Z AUTO 08017G20KT 10SM OVC070 11/M11 A2995 RMK AO2 T01101108
KFNL 
23nm E 
120056Z AUTO 07014KT 10SM OVC075 09/M12 A2992 RMK AO2 SLP125 T00941117
K1V5 
24nm SE 
AWOS 118.825 303-541-9540
No observation available
KBDU 
24nm SE 
120055Z AUTO 07007KT 10SM OVC070 10/M06 A2991 RMK AO2
KGNB 
25nm SW 
120055Z AUTO 27010KT 10SM CLR 10/M11 A2984 RMK AO2 T00991107
KEIK 
30nm SE 
120055Z AUTO 07011G17KT 10SM OVC075 10/M11 A2992 RMK AO2 T01031113 PWINO
KBJC 
33nm SE 
120047Z 05011KT 10SM BKN100 10/M08 A2992
K0CO 
36nm S 
120055Z AUTO 15013G27KT 7SM SCT004 BKN065 OVC075 M07/M15 A3000 RMK AO2
TAF
NOTAMs
Click for the latest NOTAMs
NOTAMs are issued by the DoD/FAA and will open in a separate window not controlled by AirNav.

 

 
 

Would you like to see your business listed on this page?

 If your business provides an interesting product or service to pilots, flight crews, aircraft, or users of the E P M C Heliport, you should consider listing it here.  To start the listing process, click on the button below
 
Add a business
 

Other Pages about E P M C Heliport

Update a link
 
Copyright © AirNav, LLC. All rights reserved. Privacy Policy  Contact